sensor_id;sensor_type;location;lat;lon;timestamp;P1;durP1;ratioP1;P2;durP2;ratioP2
20910;SDS011;10615;42.702;23.314;2023-07-16T00:00:00;17.67;;;9.57;;
20910;SDS011;10615;42.702;23.314;2023-07-16T00:01:00;13.07;;;8.73;;
20910;SDS011;10615;42.702;23.314;2023-07-16T00:02:01;16.15;;;9.23;;
20910;SDS011;10615;42.702;23.314;2023-07-16T00:03:02;11.85;;;8.43;;
20910;SDS011;10615;42.702;23.314;2023-07-16T00:04:03;15.55;;;9.40;;
20910;SDS011;10615;42.702;23.314;2023-07-16T00:05:03;12.57;;;8.98;;
20910;SDS011;10615;42.702;23.314;2023-07-16T00:06:05;11.27;;;8.52;;
20910;SDS011;10615;42.702;23.314;2023-07-16T00:07:06;14.10;;;9.13;;
20910;SDS011;10615;42.702;23.314;2023-07-16T00:08:07;13.88;;;8.70;;
20910;SDS011;10615;42.702;23.314;2023-07-16T00:09:08;14.88;;;8.98;;
20910;SDS011;10615;42.702;23.314;2023-07-16T00:10:08;16.77;;;8.90;;
20910;SDS011;10615;42.702;23.314;2023-07-16T00:11:09;12.63;;;8.80;;
20910;SDS011;10615;42.702;23.314;2023-07-16T00:12:10;11.82;;;8.93;;
20910;SDS011;10615;42.702;23.314;2023-07-16T00:13:11;11.75;;;8.65;;
20910;SDS011;10615;42.702;23.314;2023-07-16T00:14:11;12.48;;;8.38;;
20910;SDS011;10615;42.702;23.314;2023-07-16T00:15:12;9.88;;;8.35;;
20910;SDS011;10615;42.702;23.314;2023-07-16T00:16:13;9.10;;;7.93;;
20910;SDS011;10615;42.702;23.314;2023-07-16T00:17:14;10.32;;;8.15;;
20910;SDS011;10615;42.702;23.314;2023-07-16T00:18:16;10.20;;;8.52;;
20910;SDS011;10615;42.702;23.314;2023-07-16T00:19:17;11.07;;;8.60;;
20910;SDS011;10615;42.702;23.314;2023-07-16T00:20:18;12.70;;;8.43;;
20910;SDS011;10615;42.702;23.314;2023-07-16T00:21:18;10.93;;;8.00;;
20910;SDS011;10615;42.702;23.314;2023-07-16T00:22:19;12.73;;;7.85;;
20910;SDS011;10615;42.702;23.314;2023-07-16T00:23:20;11.82;;;7.97;;
20910;SDS011;10615;42.702;23.314;2023-07-16T00:24:20;13.55;;;8.60;;
20910;SDS011;10615;42.702;23.314;2023-07-16T00:25:21;13.65;;;8.02;;
20910;SDS011;10615;42.702;23.314;2023-07-16T00:26:22;12.25;;;7.95;;
20910;SDS011;10615;42.702;23.314;2023-07-16T00:27:22;14.77;;;8.43;;
20910;SDS011;10615;42.702;23.314;2023-07-16T00:28:23;12.43;;;8.18;;
20910;SDS011;10615;42.702;23.314;2023-07-16T00:29:24;10.68;;;8.25;;
20910;SDS011;10615;42.702;23.314;2023-07-16T00:30:24;15.30;;;7.95;;
20910;SDS011;10615;42.702;23.314;2023-07-16T00:31:25;16.23;;;8.18;;
20910;SDS011;10615;42.702;23.314;2023-07-16T00:32:26;12.88;;;8.43;;
20910;SDS011;10615;42.702;23.314;2023-07-16T00:33:27;11.85;;;7.30;;
20910;SDS011;10615;42.702;23.314;2023-07-16T00:34:27;8.95;;;7.63;;
20910;SDS011;10615;42.702;23.314;2023-07-16T00:35:28;10.65;;;7.57;;
20910;SDS011;10615;42.702;23.314;2023-07-16T00:36:29;19.25;;;7.60;;
20910;SDS011;10615;42.702;23.314;2023-07-16T00:37:29;8.60;;;7.18;;
20910;SDS011;10615;42.702;23.314;2023-07-16T00:38:30;10.00;;;7.47;;
20910;SDS011;10615;42.702;23.314;2023-07-16T00:39:31;8.93;;;7.30;;
20910;SDS011;10615;42.702;23.314;2023-07-16T00:40:32;9.35;;;7.10;;
20910;SDS011;10615;42.702;23.314;2023-07-16T00:41:32;12.70;;;7.28;;
20910;SDS011;10615;42.702;23.314;2023-07-16T00:42:33;8.27;;;7.38;;
20910;SDS011;10615;42.702;23.314;2023-07-16T00:43:34;9.38;;;7.38;;
20910;SDS011;10615;42.702;23.314;2023-07-16T00:44:34;11.85;;;7.80;;
20910;SDS011;10615;42.702;23.314;2023-07-16T00:45:35;11.48;;;7.85;;
20910;SDS011;10615;42.702;23.314;2023-07-16T00:46:37;13.52;;;7.63;;
20910;SDS011;10615;42.702;23.314;2023-07-16T00:47:39;8.02;;;7.22;;
20910;SDS011;10615;42.702;23.314;2023-07-16T00:48:40;12.18;;;7.35;;
20910;SDS011;10615;42.702;23.314;2023-07-16T00:49:43;10.27;;;7.40;;
20910;SDS011;10615;42.702;23.314;2023-07-16T00:50:43;10.30;;;7.03;;
20910;SDS011;10615;42.702;23.314;2023-07-16T00:51:45;10.23;;;7.63;;
20910;SDS011;10615;42.702;23.314;2023-07-16T00:52:46;8.60;;;6.78;;
20910;SDS011;10615;42.702;23.314;2023-07-16T00:53:47;12.25;;;7.60;;
20910;SDS011;10615;42.702;23.314;2023-07-16T00:54:48;8.85;;;7.35;;
20910;SDS011;10615;42.702;23.314;2023-07-16T00:55:49;10.70;;;7.45;;
20910;SDS011;10615;42.702;23.314;2023-07-16T00:56:50;10.05;;;6.90;;
20910;SDS011;10615;42.702;23.314;2023-07-16T00:57:51;9.85;;;7.72;;
20910;SDS011;10615;42.702;23.314;2023-07-16T00:58:53;11.30;;;7.20;;
20910;SDS011;10615;42.702;23.314;2023-07-16T00:59:53;9.40;;;6.57;;
20910;SDS011;10615;42.702;23.314;2023-07-16T01:00:54;9.65;;;7.10;;
20910;SDS011;10615;42.702;23.314;2023-07-16T01:01:55;11.00;;;7.07;;
20910;SDS011;10615;42.702;23.314;2023-07-16T01:02:55;10.77;;;7.63;;
20910;SDS011;10615;42.702;23.314;2023-07-16T01:03:56;10.90;;;6.82;;
20910;SDS011;10615;42.702;23.314;2023-07-16T01:04:57;10.05;;;6.97;;
20910;SDS011;10615;42.702;23.314;2023-07-16T01:06:11;7.95;;;6.25;;
20910;SDS011;10615;42.702;23.314;2023-07-16T01:07:29;9.85;;;6.50;;
20910;SDS011;10615;42.702;23.314;2023-07-16T01:08:32;8.90;;;6.43;;
20910;SDS011;10615;42.702;23.314;2023-07-16T01:09:41;8.65;;;6.70;;
20910;SDS011;10615;42.702;23.314;2023-07-16T01:10:43;11.60;;;7.07;;
20910;SDS011;10615;42.702;23.314;2023-07-16T01:11:44;10.73;;;6.57;;
20910;SDS011;10615;42.702;23.314;2023-07-16T01:12:46;8.93;;;6.18;;
20910;SDS011;10615;42.702;23.314;2023-07-16T01:13:46;13.85;;;6.90;;
20910;SDS011;10615;42.702;23.314;2023-07-16T01:14:48;9.38;;;6.50;;
20910;SDS011;10615;42.702;23.314;2023-07-16T01:15:49;8.70;;;6.72;;
20910;SDS011;10615;42.702;23.314;2023-07-16T01:16:50;12.98;;;7.07;;
20910;SDS011;10615;42.702;23.314;2023-07-16T01:17:53;9.15;;;6.53;;
20910;SDS011;10615;42.702;23.314;2023-07-16T01:18:53;9.63;;;6.57;;
20910;SDS011;10615;42.702;23.314;2023-07-16T01:19:54;7.88;;;6.35;;
20910;SDS011;10615;42.702;23.314;2023-07-16T01:20:55;8.98;;;6.57;;
20910;SDS011;10615;42.702;23.314;2023-07-16T01:22:01;11.85;;;6.88;;
20910;SDS011;10615;42.702;23.314;2023-07-16T01:27:44;7.47;;;5.93;;
20910;SDS011;10615;42.702;23.314;2023-07-16T01:29:52;12.10;;;6.30;;
20910;SDS011;10615;42.702;23.314;2023-07-16T01:31:03;9.75;;;6.25;;
20910;SDS011;10615;42.702;23.314;2023-07-16T01:32:05;8.23;;;5.80;;
20910;SDS011;10615;42.702;23.314;2023-07-16T01:33:07;9.60;;;6.82;;
20910;SDS011;10615;42.702;23.314;2023-07-16T01:34:10;9.50;;;6.05;;
20910;SDS011;10615;42.702;23.314;2023-07-16T01:35:12;13.10;;;6.32;;
20910;SDS011;10615;42.702;23.314;2023-07-16T01:36:14;9.63;;;6.72;;
20910;SDS011;10615;42.702;23.314;2023-07-16T01:37:16;8.60;;;6.20;;
20910;SDS011;10615;42.702;23.314;2023-07-16T01:38:17;10.32;;;6.55;;
20910;SDS011;10615;42.702;23.314;2023-07-16T01:39:18;8.88;;;6.28;;
20910;SDS011;10615;42.702;23.314;2023-07-16T01:40:19;11.02;;;6.13;;
20910;SDS011;10615;42.702;23.314;2023-07-16T01:41:20;9.30;;;6.72;;
20910;SDS011;10615;42.702;23.314;2023-07-16T01:42:21;6.72;;;6.00;;
20910;SDS011;10615;42.702;23.314;2023-07-16T01:43:22;6.82;;;6.07;;
20910;SDS011;10615;42.702;23.314;2023-07-16T01:44:23;8.88;;;6.00;;
20910;SDS011;10615;42.702;23.314;2023-07-16T01:45:23;9.07;;;6.13;;
20910;SDS011;10615;42.702;23.314;2023-07-16T01:46:24;12.43;;;6.57;;
20910;SDS011;10615;42.702;23.314;2023-07-16T01:49:33;10.82;;;6.03;;
20910;SDS011;10615;42.702;23.314;2023-07-16T01:50:34;8.75;;;6.10;;
20910;SDS011;10615;42.702;23.314;2023-07-16T01:51:35;8.63;;;6.50;;
20910;SDS011;10615;42.702;23.314;2023-07-16T01:52:36;11.35;;;6.28;;
20910;SDS011;10615;42.702;23.314;2023-07-16T01:53:37;8.63;;;6.05;;
20910;SDS011;10615;42.702;23.314;2023-07-16T01:54:38;8.75;;;5.95;;
20910;SDS011;10615;42.702;23.314;2023-07-16T01:55:38;11.07;;;6.15;;
20910;SDS011;10615;42.702;23.314;2023-07-16T01:56:39;11.63;;;6.50;;
20910;SDS011;10615;42.702;23.314;2023-07-16T01:57:40;10.48;;;6.07;;
20910;SDS011;10615;42.702;23.314;2023-07-16T01:58:40;8.63;;;5.68;;
20910;SDS011;10615;42.702;23.314;2023-07-16T01:59:41;9.23;;;5.25;;
20910;SDS011;10615;42.702;23.314;2023-07-16T02:00:42;7.28;;;5.43;;
20910;SDS011;10615;42.702;23.314;2023-07-16T02:01:42;7.38;;;6.00;;
20910;SDS011;10615;42.702;23.314;2023-07-16T02:02:43;9.57;;;5.70;;
20910;SDS011;10615;42.702;23.314;2023-07-16T02:03:44;6.47;;;5.13;;
20910;SDS011;10615;42.702;23.314;2023-07-16T02:04:44;7.25;;;6.35;;
20910;SDS011;10615;42.702;23.314;2023-07-16T02:05:45;9.75;;;5.88;;
20910;SDS011;10615;42.702;23.314;2023-07-16T02:06:46;6.78;;;5.25;;
20910;SDS011;10615;42.702;23.314;2023-07-16T02:07:48;8.60;;;5.55;;
20910;SDS011;10615;42.702;23.314;2023-07-16T02:08:48;9.32;;;5.63;;
20910;SDS011;10615;42.702;23.314;2023-07-16T02:09:49;6.95;;;5.38;;
20910;SDS011;10615;42.702;23.314;2023-07-16T02:10:50;6.68;;;5.25;;
20910;SDS011;10615;42.702;23.314;2023-07-16T02:11:51;10.43;;;5.15;;
20910;SDS011;10615;42.702;23.314;2023-07-16T02:12:52;9.98;;;5.47;;
20910;SDS011;10615;42.702;23.314;2023-07-16T02:13:52;9.88;;;5.70;;
20910;SDS011;10615;42.702;23.314;2023-07-16T02:14:53;8.80;;;5.55;;
20910;SDS011;10615;42.702;23.314;2023-07-16T02:15:53;8.13;;;5.45;;
20910;SDS011;10615;42.702;23.314;2023-07-16T02:16:54;8.75;;;5.35;;
20910;SDS011;10615;42.702;23.314;2023-07-16T02:17:55;10.00;;;5.25;;
20910;SDS011;10615;42.702;23.314;2023-07-16T02:18:55;6.38;;;5.05;;
20910;SDS011;10615;42.702;23.314;2023-07-16T02:19:56;7.90;;;5.40;;
20910;SDS011;10615;42.702;23.314;2023-07-16T02:20:57;10.27;;;5.07;;
20910;SDS011;10615;42.702;23.314;2023-07-16T02:21:57;9.00;;;5.32;;
20910;SDS011;10615;42.702;23.314;2023-07-16T02:22:58;11.00;;;5.32;;
20910;SDS011;10615;42.702;23.314;2023-07-16T02:23:59;9.32;;;5.25;;
20910;SDS011;10615;42.702;23.314;2023-07-16T02:24:59;9.50;;;5.40;;
20910;SDS011;10615;42.702;23.314;2023-07-16T02:26:01;8.45;;;5.05;;
20910;SDS011;10615;42.702;23.314;2023-07-16T02:27:01;10.85;;;5.43;;
20910;SDS011;10615;42.702;23.314;2023-07-16T02:28:02;6.43;;;4.85;;
20910;SDS011;10615;42.702;23.314;2023-07-16T02:29:03;7.93;;;5.10;;
20910;SDS011;10615;42.702;23.314;2023-07-16T02:30:08;6.32;;;5.40;;
20910;SDS011;10615;42.702;23.314;2023-07-16T02:31:09;8.43;;;6.00;;
20910;SDS011;10615;42.702;23.314;2023-07-16T02:32:10;11.43;;;6.65;;
20910;SDS011;10615;42.702;23.314;2023-07-16T02:33:11;6.70;;;5.85;;
20910;SDS011;10615;42.702;23.314;2023-07-16T02:34:11;10.75;;;6.93;;
20910;SDS011;10615;42.702;23.314;2023-07-16T02:35:12;7.65;;;6.43;;
20910;SDS011;10615;42.702;23.314;2023-07-16T02:36:13;8.93;;;6.10;;
20910;SDS011;10615;42.702;23.314;2023-07-16T02:37:14;8.38;;;6.80;;
20910;SDS011;10615;42.702;23.314;2023-07-16T02:38:15;9.77;;;6.75;;
20910;SDS011;10615;42.702;23.314;2023-07-16T02:39:15;7.68;;;6.70;;
20910;SDS011;10615;42.702;23.314;2023-07-16T02:40:16;10.65;;;6.38;;
20910;SDS011;10615;42.702;23.314;2023-07-16T02:41:17;10.18;;;6.60;;
20910;SDS011;10615;42.702;23.314;2023-07-16T02:42:17;12.43;;;5.95;;
20910;SDS011;10615;42.702;23.314;2023-07-16T02:43:18;10.77;;;6.97;;
20910;SDS011;10615;42.702;23.314;2023-07-16T02:44:19;11.07;;;7.00;;
20910;SDS011;10615;42.702;23.314;2023-07-16T02:45:20;8.10;;;6.60;;
20910;SDS011;10615;42.702;23.314;2023-07-16T02:46:21;9.45;;;6.65;;
20910;SDS011;10615;42.702;23.314;2023-07-16T02:47:21;7.15;;;6.00;;
20910;SDS011;10615;42.702;23.314;2023-07-16T02:48:22;8.70;;;7.03;;
20910;SDS011;10615;42.702;23.314;2023-07-16T02:49:23;9.73;;;6.35;;
20910;SDS011;10615;42.702;23.314;2023-07-16T02:50:23;12.02;;;6.30;;
20910;SDS011;10615;42.702;23.314;2023-07-16T02:51:24;8.88;;;6.25;;
20910;SDS011;10615;42.702;23.314;2023-07-16T02:52:25;9.82;;;6.45;;
20910;SDS011;10615;42.702;23.314;2023-07-16T02:53:25;8.32;;;5.30;;
20910;SDS011;10615;42.702;23.314;2023-07-16T02:54:26;7.15;;;5.70;;
20910;SDS011;10615;42.702;23.314;2023-07-16T02:55:27;8.77;;;6.15;;
20910;SDS011;10615;42.702;23.314;2023-07-16T02:56:27;7.70;;;5.68;;
20910;SDS011;10615;42.702;23.314;2023-07-16T02:57:28;6.75;;;6.00;;
20910;SDS011;10615;42.702;23.314;2023-07-16T02:58:29;9.10;;;5.70;;
20910;SDS011;10615;42.702;23.314;2023-07-16T02:59:30;6.25;;;5.22;;
20910;SDS011;10615;42.702;23.314;2023-07-16T03:00:31;8.95;;;5.75;;
20910;SDS011;10615;42.702;23.314;2023-07-16T03:01:32;6.97;;;5.50;;
20910;SDS011;10615;42.702;23.314;2023-07-16T03:02:32;7.07;;;5.53;;
20910;SDS011;10615;42.702;23.314;2023-07-16T03:03:33;8.82;;;5.40;;
20910;SDS011;10615;42.702;23.314;2023-07-16T03:04:34;6.90;;;5.57;;
20910;SDS011;10615;42.702;23.314;2023-07-16T03:05:34;8.15;;;5.70;;
20910;SDS011;10615;42.702;23.314;2023-07-16T03:06:35;9.23;;;5.40;;
20910;SDS011;10615;42.702;23.314;2023-07-16T03:07:36;6.15;;;5.40;;
20910;SDS011;10615;42.702;23.314;2023-07-16T03:08:36;7.28;;;5.38;;
20910;SDS011;10615;42.702;23.314;2023-07-16T03:09:37;7.75;;;5.72;;
20910;SDS011;10615;42.702;23.314;2023-07-16T03:10:37;8.70;;;5.75;;
20910;SDS011;10615;42.702;23.314;2023-07-16T03:11:38;7.32;;;5.65;;
20910;SDS011;10615;42.702;23.314;2023-07-16T03:12:39;8.35;;;5.30;;
20910;SDS011;10615;42.702;23.314;2023-07-16T03:13:39;7.88;;;5.18;;
20910;SDS011;10615;42.702;23.314;2023-07-16T03:14:40;8.27;;;5.13;;
20910;SDS011;10615;42.702;23.314;2023-07-16T03:15:41;8.55;;;5.30;;
20910;SDS011;10615;42.702;23.314;2023-07-16T03:16:41;6.97;;;5.15;;
20910;SDS011;10615;42.702;23.314;2023-07-16T03:17:42;7.88;;;5.32;;
20910;SDS011;10615;42.702;23.314;2023-07-16T03:18:44;10.18;;;5.43;;
20910;SDS011;10615;42.702;23.314;2023-07-16T03:19:45;8.38;;;5.32;;
20910;SDS011;10615;42.702;23.314;2023-07-16T03:20:46;9.07;;;5.35;;
20910;SDS011;10615;42.702;23.314;2023-07-16T03:21:46;8.30;;;5.40;;
20910;SDS011;10615;42.702;23.314;2023-07-16T03:22:49;12.10;;;5.38;;
20910;SDS011;10615;42.702;23.314;2023-07-16T03:23:50;7.25;;;5.50;;
20910;SDS011;10615;42.702;23.314;2023-07-16T03:24:50;7.47;;;5.40;;
20910;SDS011;10615;42.702;23.314;2023-07-16T03:25:51;8.52;;;5.30;;
20910;SDS011;10615;42.702;23.314;2023-07-16T03:26:52;7.15;;;5.45;;
20910;SDS011;10615;42.702;23.314;2023-07-16T03:27:52;7.10;;;5.10;;
20910;SDS011;10615;42.702;23.314;2023-07-16T03:28:53;8.38;;;5.38;;
20910;SDS011;10615;42.702;23.314;2023-07-16T03:29:55;7.18;;;5.50;;
20910;SDS011;10615;42.702;23.314;2023-07-16T03:30:56;6.40;;;5.20;;
20910;SDS011;10615;42.702;23.314;2023-07-16T03:31:56;7.55;;;5.60;;
20910;SDS011;10615;42.702;23.314;2023-07-16T03:32:57;7.57;;;5.20;;
20910;SDS011;10615;42.702;23.314;2023-07-16T03:33:58;7.85;;;6.00;;
20910;SDS011;10615;42.702;23.314;2023-07-16T03:34:58;9.07;;;5.45;;
20910;SDS011;10615;42.702;23.314;2023-07-16T03:35:59;7.43;;;5.03;;
20910;SDS011;10615;42.702;23.314;2023-07-16T03:37:00;13.30;;;5.95;;
20910;SDS011;10615;42.702;23.314;2023-07-16T03:38:00;8.48;;;5.32;;
20910;SDS011;10615;42.702;23.314;2023-07-16T03:39:01;8.05;;;5.65;;
20910;SDS011;10615;42.702;23.314;2023-07-16T03:40:12;6.72;;;5.82;;
20910;SDS011;10615;42.702;23.314;2023-07-16T03:41:14;10.25;;;5.53;;
20910;SDS011;10615;42.702;23.314;2023-07-16T03:42:15;8.60;;;5.63;;
20910;SDS011;10615;42.702;23.314;2023-07-16T03:43:16;10.02;;;5.80;;
20910;SDS011;10615;42.702;23.314;2023-07-16T03:44:17;7.88;;;5.70;;
20910;SDS011;10615;42.702;23.314;2023-07-16T03:45:18;10.10;;;5.72;;
20910;SDS011;10615;42.702;23.314;2023-07-16T03:46:19;10.15;;;5.72;;
20910;SDS011;10615;42.702;23.314;2023-07-16T03:47:19;8.25;;;5.15;;
20910;SDS011;10615;42.702;23.314;2023-07-16T03:48:20;8.68;;;5.35;;
20910;SDS011;10615;42.702;23.314;2023-07-16T03:49:21;7.82;;;5.40;;
20910;SDS011;10615;42.702;23.314;2023-07-16T03:50:21;9.85;;;5.60;;
20910;SDS011;10615;42.702;23.314;2023-07-16T03:51:22;9.27;;;5.00;;
20910;SDS011;10615;42.702;23.314;2023-07-16T03:52:23;7.40;;;5.30;;
20910;SDS011;10615;42.702;23.314;2023-07-16T03:53:24;8.60;;;5.30;;
20910;SDS011;10615;42.702;23.314;2023-07-16T03:54:25;8.05;;;5.03;;
20910;SDS011;10615;42.702;23.314;2023-07-16T03:55:26;6.32;;;5.10;;
20910;SDS011;10615;42.702;23.314;2023-07-16T03:56:26;5.78;;;5.00;;
20910;SDS011;10615;42.702;23.314;2023-07-16T03:57:28;9.73;;;5.25;;
20910;SDS011;10615;42.702;23.314;2023-07-16T03:58:29;9.55;;;5.28;;
20910;SDS011;10615;42.702;23.314;2023-07-16T03:59:30;9.70;;;5.20;;
20910;SDS011;10615;42.702;23.314;2023-07-16T04:00:30;5.22;;;4.65;;
20910;SDS011;10615;42.702;23.314;2023-07-16T04:01:31;9.25;;;5.40;;
20910;SDS011;10615;42.702;23.314;2023-07-16T04:02:32;8.18;;;5.28;;
20910;SDS011;10615;42.702;23.314;2023-07-16T04:03:33;6.53;;;5.30;;
20910;SDS011;10615;42.702;23.314;2023-07-16T04:04:33;10.07;;;5.30;;
20910;SDS011;10615;42.702;23.314;2023-07-16T04:05:34;10.43;;;5.25;;
20910;SDS011;10615;42.702;23.314;2023-07-16T04:06:35;7.93;;;5.40;;
20910;SDS011;10615;42.702;23.314;2023-07-16T04:07:36;10.10;;;4.90;;
20910;SDS011;10615;42.702;23.314;2023-07-16T04:08:36;8.52;;;5.28;;
20910;SDS011;10615;42.702;23.314;2023-07-16T04:09:37;11.40;;;5.90;;
20910;SDS011;10615;42.702;23.314;2023-07-16T04:10:38;10.02;;;5.68;;
20910;SDS011;10615;42.702;23.314;2023-07-16T04:11:39;8.25;;;5.10;;
20910;SDS011;10615;42.702;23.314;2023-07-16T04:12:40;9.30;;;5.53;;
20910;SDS011;10615;42.702;23.314;2023-07-16T04:13:40;5.53;;;5.00;;
20910;SDS011;10615;42.702;23.314;2023-07-16T04:14:41;9.18;;;5.57;;
20910;SDS011;10615;42.702;23.314;2023-07-16T04:15:42;10.95;;;5.30;;
20910;SDS011;10615;42.702;23.314;2023-07-16T04:16:42;9.50;;;5.35;;
20910;SDS011;10615;42.702;23.314;2023-07-16T04:17:43;6.38;;;4.70;;
20910;SDS011;10615;42.702;23.314;2023-07-16T04:18:44;5.60;;;5.00;;
20910;SDS011;10615;42.702;23.314;2023-07-16T04:19:44;7.60;;;5.30;;
20910;SDS011;10615;42.702;23.314;2023-07-16T04:20:45;7.13;;;4.45;;
20910;SDS011;10615;42.702;23.314;2023-07-16T04:21:46;7.93;;;4.65;;
20910;SDS011;10615;42.702;23.314;2023-07-16T04:22:46;10.90;;;5.32;;
20910;SDS011;10615;42.702;23.314;2023-07-16T04:23:47;9.60;;;4.97;;
20910;SDS011;10615;42.702;23.314;2023-07-16T04:24:48;8.20;;;4.80;;
20910;SDS011;10615;42.702;23.314;2023-07-16T04:25:52;8.10;;;4.95;;
20910;SDS011;10615;42.702;23.314;2023-07-16T04:26:53;6.38;;;4.63;;
20910;SDS011;10615;42.702;23.314;2023-07-16T04:27:54;6.47;;;4.28;;
20910;SDS011;10615;42.702;23.314;2023-07-16T04:28:55;8.68;;;4.70;;
20910;SDS011;10615;42.702;23.314;2023-07-16T04:29:56;8.23;;;4.88;;
20910;SDS011;10615;42.702;23.314;2023-07-16T04:30:57;5.72;;;4.80;;
20910;SDS011;10615;42.702;23.314;2023-07-16T04:31:57;8.73;;;4.72;;
20910;SDS011;10615;42.702;23.314;2023-07-16T04:32:58;6.72;;;4.78;;
20910;SDS011;10615;42.702;23.314;2023-07-16T04:33:59;11.00;;;4.68;;
20910;SDS011;10615;42.702;23.314;2023-07-16T04:34:59;7.63;;;5.10;;
20910;SDS011;10615;42.702;23.314;2023-07-16T04:36:00;8.00;;;4.97;;
20910;SDS011;10615;42.702;23.314;2023-07-16T04:37:01;8.27;;;5.07;;
20910;SDS011;10615;42.702;23.314;2023-07-16T04:38:02;7.50;;;4.75;;
20910;SDS011;10615;42.702;23.314;2023-07-16T04:39:02;6.28;;;4.35;;
20910;SDS011;10615;42.702;23.314;2023-07-16T04:40:04;7.13;;;5.03;;
20910;SDS011;10615;42.702;23.314;2023-07-16T04:41:06;7.00;;;4.95;;
20910;SDS011;10615;42.702;23.314;2023-07-16T04:42:07;5.60;;;5.03;;
20910;SDS011;10615;42.702;23.314;2023-07-16T04:43:07;5.63;;;5.03;;
20910;SDS011;10615;42.702;23.314;2023-07-16T04:44:08;5.78;;;4.43;;
20910;SDS011;10615;42.702;23.314;2023-07-16T04:45:09;7.55;;;4.80;;
20910;SDS011;10615;42.702;23.314;2023-07-16T04:46:09;5.43;;;4.68;;
20910;SDS011;10615;42.702;23.314;2023-07-16T04:47:11;7.13;;;4.43;;
20910;SDS011;10615;42.702;23.314;2023-07-16T04:48:12;4.45;;;3.95;;
20910;SDS011;10615;42.702;23.314;2023-07-16T04:49:13;7.20;;;4.20;;
20910;SDS011;10615;42.702;23.314;2023-07-16T04:50:14;6.80;;;4.40;;
20910;SDS011;10615;42.702;23.314;2023-07-16T04:51:14;5.65;;;4.28;;
20910;SDS011;10615;42.702;23.314;2023-07-16T04:52:15;5.80;;;4.60;;
20910;SDS011;10615;42.702;23.314;2023-07-16T04:53:15;5.35;;;4.10;;
20910;SDS011;10615;42.702;23.314;2023-07-16T04:54:18;6.32;;;4.20;;
20910;SDS011;10615;42.702;23.314;2023-07-16T04:55:19;4.63;;;4.18;;
20910;SDS011;10615;42.702;23.314;2023-07-16T04:56:19;9.18;;;4.32;;
20910;SDS011;10615;42.702;23.314;2023-07-16T04:57:20;7.60;;;3.90;;
20910;SDS011;10615;42.702;23.314;2023-07-16T04:58:21;7.53;;;6.40;;
20910;SDS011;10615;42.702;23.314;2023-07-16T04:59:21;4.95;;;4.45;;
20910;SDS011;10615;42.702;23.314;2023-07-16T05:00:22;6.43;;;4.70;;
20910;SDS011;10615;42.702;23.314;2023-07-16T05:01:23;7.28;;;4.13;;
20910;SDS011;10615;42.702;23.314;2023-07-16T05:02:23;7.40;;;4.97;;
20910;SDS011;10615;42.702;23.314;2023-07-16T05:03:24;4.60;;;4.20;;
20910;SDS011;10615;42.702;23.314;2023-07-16T05:04:25;7.00;;;4.40;;
20910;SDS011;10615;42.702;23.314;2023-07-16T05:05:25;8.02;;;4.50;;
20910;SDS011;10615;42.702;23.314;2023-07-16T05:06:27;6.15;;;4.20;;
20910;SDS011;10615;42.702;23.314;2023-07-16T05:07:28;6.80;;;4.25;;
20910;SDS011;10615;42.702;23.314;2023-07-16T05:08:28;7.35;;;4.35;;
20910;SDS011;10615;42.702;23.314;2023-07-16T05:09:29;7.47;;;4.20;;
20910;SDS011;10615;42.702;23.314;2023-07-16T05:10:30;6.47;;;4.35;;
20910;SDS011;10615;42.702;23.314;2023-07-16T05:11:31;5.03;;;3.97;;
20910;SDS011;10615;42.702;23.314;2023-07-16T05:12:33;8.15;;;4.07;;
20910;SDS011;10615;42.702;23.314;2023-07-16T05:13:34;8.80;;;4.35;;
20910;SDS011;10615;42.702;23.314;2023-07-16T05:14:42;5.18;;;4.15;;
20910;SDS011;10615;42.702;23.314;2023-07-16T05:15:47;4.30;;;3.90;;
20910;SDS011;10615;42.702;23.314;2023-07-16T05:16:48;7.82;;;4.22;;
20910;SDS011;10615;42.702;23.314;2023-07-16T05:17:49;10.40;;;4.20;;
20910;SDS011;10615;42.702;23.314;2023-07-16T05:18:49;8.40;;;4.32;;
20910;SDS011;10615;42.702;23.314;2023-07-16T05:19:50;9.20;;;4.43;;
20910;SDS011;10615;42.702;23.314;2023-07-16T05:20:51;6.85;;;4.20;;
20910;SDS011;10615;42.702;23.314;2023-07-16T05:21:51;4.57;;;3.97;;
20910;SDS011;10615;42.702;23.314;2023-07-16T05:22:52;7.60;;;4.47;;
20910;SDS011;10615;42.702;23.314;2023-07-16T05:23:53;8.75;;;3.55;;
20910;SDS011;10615;42.702;23.314;2023-07-16T05:24:53;7.90;;;4.05;;
20910;SDS011;10615;42.702;23.314;2023-07-16T05:25:54;5.38;;;4.05;;
20910;SDS011;10615;42.702;23.314;2023-07-16T05:26:55;5.88;;;3.90;;
20910;SDS011;10615;42.702;23.314;2023-07-16T05:27:55;4.20;;;3.58;;
20910;SDS011;10615;42.702;23.314;2023-07-16T05:28:56;6.10;;;4.20;;
20910;SDS011;10615;42.702;23.314;2023-07-16T05:29:57;4.45;;;3.78;;
20910;SDS011;10615;42.702;23.314;2023-07-16T05:30:59;6.60;;;3.80;;
20910;SDS011;10615;42.702;23.314;2023-07-16T05:32:03;6.07;;;3.75;;
20910;SDS011;10615;42.702;23.314;2023-07-16T05:33:04;5.53;;;3.92;;
20910;SDS011;10615;42.702;23.314;2023-07-16T05:34:05;4.95;;;4.22;;
20910;SDS011;10615;42.702;23.314;2023-07-16T05:35:06;5.68;;;3.85;;
20910;SDS011;10615;42.702;23.314;2023-07-16T05:36:06;8.95;;;4.03;;
20910;SDS011;10615;42.702;23.314;2023-07-16T05:37:07;8.52;;;4.00;;
20910;SDS011;10615;42.702;23.314;2023-07-16T05:38:08;4.32;;;3.78;;
20910;SDS011;10615;42.702;23.314;2023-07-16T05:39:09;4.82;;;3.90;;
20910;SDS011;10615;42.702;23.314;2023-07-16T05:40:09;5.68;;;3.92;;
20910;SDS011;10615;42.702;23.314;2023-07-16T05:41:10;5.72;;;3.90;;
20910;SDS011;10615;42.702;23.314;2023-07-16T05:42:11;4.65;;;3.80;;
20910;SDS011;10615;42.702;23.314;2023-07-16T05:43:11;4.70;;;3.83;;
20910;SDS011;10615;42.702;23.314;2023-07-16T05:44:14;5.88;;;3.75;;
20910;SDS011;10615;42.702;23.314;2023-07-16T05:45:15;4.68;;;3.90;;
20910;SDS011;10615;42.702;23.314;2023-07-16T05:46:16;4.88;;;3.70;;
20910;SDS011;10615;42.702;23.314;2023-07-16T05:47:16;5.82;;;3.92;;
20910;SDS011;10615;42.702;23.314;2023-07-16T05:48:17;5.55;;;4.00;;
20910;SDS011;10615;42.702;23.314;2023-07-16T05:49:18;6.60;;;3.97;;
20910;SDS011;10615;42.702;23.314;2023-07-16T05:50:18;4.22;;;3.80;;
20910;SDS011;10615;42.702;23.314;2023-07-16T05:51:19;4.25;;;3.88;;
20910;SDS011;10615;42.702;23.314;2023-07-16T05:52:20;5.22;;;3.95;;
20910;SDS011;10615;42.702;23.314;2023-07-16T05:53:20;5.90;;;3.88;;
20910;SDS011;10615;42.702;23.314;2023-07-16T05:54:21;7.63;;;4.20;;
20910;SDS011;10615;42.702;23.314;2023-07-16T05:55:22;6.28;;;4.00;;
20910;SDS011;10615;42.702;23.314;2023-07-16T05:56:23;6.10;;;4.10;;
20910;SDS011;10615;42.702;23.314;2023-07-16T05:57:24;8.05;;;4.15;;
20910;SDS011;10615;42.702;23.314;2023-07-16T05:58:24;7.13;;;4.20;;
20910;SDS011;10615;42.702;23.314;2023-07-16T05:59:25;6.00;;;4.38;;
20910;SDS011;10615;42.702;23.314;2023-07-16T06:00:26;7.18;;;4.40;;
20910;SDS011;10615;42.702;23.314;2023-07-16T06:01:27;7.25;;;4.40;;
20910;SDS011;10615;42.702;23.314;2023-07-16T06:02:28;5.07;;;4.25;;
20910;SDS011;10615;42.702;23.314;2023-07-16T06:03:28;9.25;;;5.60;;
20910;SDS011;10615;42.702;23.314;2023-07-16T06:04:29;5.85;;;5.05;;
20910;SDS011;10615;42.702;23.314;2023-07-16T06:05:30;8.63;;;4.80;;
20910;SDS011;10615;42.702;23.314;2023-07-16T06:06:34;6.80;;;4.60;;
20910;SDS011;10615;42.702;23.314;2023-07-16T06:07:35;10.85;;;4.38;;
20910;SDS011;10615;42.702;23.314;2023-07-16T06:08:35;6.25;;;4.22;;